createdAt,value
2018-12-05T00:01:29.039Z,101248.31
2018-12-05T00:06:35.295Z,101250.94
2018-12-05T00:11:39.782Z,101250.00
2018-12-05T00:16:44.511Z,101246.22
2018-12-05T00:21:48.734Z,101237.68
2018-12-05T00:26:52.937Z,101247.59
2018-12-05T00:31:57.143Z,101249.72
2018-12-05T00:37:01.389Z,101249.07
2018-12-05T00:42:05.715Z,101263.91
2018-12-05T00:47:10.155Z,101264.13
2018-12-05T00:52:14.472Z,101267.99
2018-12-05T00:57:19.765Z,101279.17
2018-12-05T01:02:24.892Z,101283.59
2018-12-05T01:07:29.242Z,101281.28
2018-12-05T01:12:34.048Z,101280.09
2018-12-05T01:17:38.387Z,101287.50
2018-12-05T01:22:42.736Z,101287.31
2018-12-05T01:27:47.202Z,101285.17
2018-12-05T01:32:51.452Z,101288.08
2018-12-05T01:37:55.652Z,101290.05
2018-12-05T01:42:59.884Z,101293.37
2018-12-05T01:48:04.193Z,101293.64
2018-12-05T01:53:13.534Z,101291.17
2018-12-05T01:58:17.769Z,101280.17
2018-12-05T02:03:27.031Z,101276.75
2018-12-05T02:08:31.163Z,101289.44
2018-12-05T02:13:35.441Z,101290.45
2018-12-05T02:18:39.733Z,101289.25
2018-12-05T02:23:44.040Z,101292.45
2018-12-05T02:28:48.257Z,101298.63
2018-12-05T02:33:52.547Z,101292.67
2018-12-05T02:38:56.838Z,101291.96
2018-12-05T02:44:01.129Z,101295.61
2018-12-05T02:49:05.712Z,101301.78
2018-12-05T02:54:09.894Z,101310.06
2018-12-05T02:59:14.206Z,101313.28
2018-12-05T03:04:18.884Z,101313.89
2018-12-05T03:09:23.137Z,101329.53
2018-12-05T03:14:27.463Z,101323.70
2018-12-05T03:19:31.972Z,101326.22
2018-12-05T03:24:36.440Z,101331.05
2018-12-05T03:29:40.588Z,101325.31
2018-12-05T03:34:46.892Z,101323.70
2018-12-05T03:39:51.296Z,101327.03
2018-12-05T03:44:55.648Z,101331.26
2018-12-05T03:50:03.634Z,101338.85
2018-12-05T03:55:07.867Z,101331.77
2018-12-05T04:00:12.315Z,101347.09
2018-12-05T04:05:16.534Z,101341.75
2018-12-05T04:10:21.077Z,101339.05
2018-12-05T04:15:25.557Z,101335.09
2018-12-05T04:20:29.767Z,101345.58
2018-12-05T04:25:34.104Z,101348.00
2018-12-05T04:30:38.246Z,101342.95
2018-12-05T04:35:44.511Z,101342.69
2018-12-05T04:40:49.225Z,101342.16
2018-12-05T04:45:53.636Z,101342.69
2018-12-05T04:50:58.132Z,101351.76
2018-12-05T04:56:02.354Z,101341.65
2018-12-05T05:01:06.935Z,101359.59
2018-12-05T05:06:11.268Z,101356.87
2018-12-05T05:11:15.452Z,101366.66
2018-12-05T05:16:19.683Z,101358.38
2018-12-05T05:21:23.919Z,101370.98
2018-12-05T05:26:28.157Z,101366.77
2018-12-05T05:31:33.336Z,101366.66
2018-12-05T05:36:37.993Z,101379.25
2018-12-05T05:41:42.386Z,101364.72
2018-12-05T05:46:47.148Z,101367.34
2018-12-05T05:51:51.399Z,101364.72
2018-12-05T05:56:57.151Z,101361.41
2018-12-05T06:02:01.813Z,101368.55
2018-12-05T06:07:06.145Z,101363.63
2018-12-05T06:12:12.033Z,101373.00
2018-12-05T06:17:16.456Z,101367.55
2018-12-05T06:22:20.871Z,101368.86
2018-12-05T06:27:25.095Z,101372.69
2018-12-05T06:32:29.355Z,101375.67
2018-12-05T06:37:33.676Z,101367.38
2018-12-05T06:42:38.021Z,101370.10
2018-12-05T06:47:42.279Z,101382.20
2018-12-05T06:52:46.493Z,101385.73
2018-12-05T06:57:50.942Z,101398.55
2018-12-05T07:02:55.453Z,101400.64
2018-12-05T07:07:59.797Z,101400.91
2018-12-05T07:13:04.988Z,101398.58
2018-12-05T07:18:09.590Z,101404.44
2018-12-05T07:23:13.808Z,101426.11
2018-12-05T07:28:18.081Z,101421.50
2018-12-05T07:33:22.394Z,101429.27
2018-12-05T07:38:26.616Z,101419.89
2018-12-05T07:43:30.965Z,101411.45
2018-12-05T07:48:35.275Z,101410.47
2018-12-05T07:53:39.634Z,101419.14
2018-12-05T07:58:44.027Z,101420.55
2018-12-05T08:03:50.157Z,101438.32
2018-12-05T08:08:54.370Z,101442.89
2018-12-05T08:13:58.644Z,101451.88
2018-12-05T08:19:03.052Z,101448.47
2018-12-05T08:24:07.230Z,101441.41
2018-12-05T08:29:11.714Z,101437.27
2018-12-05T08:34:15.999Z,101433.75
2018-12-05T08:39:20.456Z,101439.52
2018-12-05T08:44:24.662Z,101440.63
2018-12-05T08:49:28.948Z,101429.55
2018-12-05T08:54:33.293Z,101428.45
2018-12-05T08:59:37.691Z,101434.11
2018-12-05T09:04:46.940Z,101425.92
2018-12-05T09:09:51.690Z,101429.75
2018-12-05T09:14:56.372Z,101436.93
2018-12-05T09:20:01.053Z,101432.48
2018-12-05T09:25:05.874Z,101439.86
2018-12-05T09:30:10.348Z,101434.71
2018-12-05T09:35:14.715Z,101435.22
2018-12-05T09:40:19.376Z,101430.86
2018-12-05T09:45:23.746Z,101424.70
2018-12-05T09:50:28.291Z,101412.06
2018-12-05T09:55:32.627Z,101405.06
2018-12-05T10:00:37.717Z,101397.98
2018-12-05T10:05:47.231Z,101398.58
2018-12-05T10:10:51.498Z,101400.94
2018-12-05T10:15:55.750Z,101388.98
2018-12-05T10:20:59.948Z,101381.56
2018-12-05T10:26:05.304Z,101383.23
2018-12-05T10:31:09.901Z,101372.85
2018-12-05T10:36:14.808Z,101369.64
2018-12-05T10:41:19.861Z,101351.87
2018-12-05T10:46:25.057Z,101344.05
2018-12-05T10:51:29.871Z,101345.61
2018-12-05T10:56:34.044Z,101333.84
2018-12-05T11:01:43.796Z,101333.57
2018-12-05T11:06:53.211Z,101329.30
2018-12-05T11:12:02.818Z,101331.45
2018-12-05T11:17:12.422Z,101319.39
2018-12-05T11:22:22.243Z,101308.14
2018-12-05T11:27:27.178Z,101311.32
2018-12-05T11:32:38.579Z,101314.95
2018-12-05T11:37:42.725Z,101309.53
2018-12-05T11:42:47.088Z,101297.11
2018-12-05T11:47:51.394Z,101304.49
2018-12-05T11:52:55.838Z,101297.94
2018-12-05T11:58:02.239Z,101297.07
2018-12-05T12:03:06.977Z,101291.45
2018-12-05T12:08:13.692Z,101290.76
2018-12-05T12:13:18.153Z,101295.30
2018-12-05T12:18:22.412Z,101282.25
2018-12-05T12:23:32.056Z,101278.44
2018-12-05T12:28:36.169Z,101276.64
2018-12-05T12:33:40.763Z,101269.30
2018-12-05T12:38:45.001Z,101262.41
2018-12-05T12:43:49.224Z,101261.95
2018-12-05T12:48:53.606Z,101259.43
2018-12-05T12:59:13.504Z,101249.83
2018-12-05T13:04:17.709Z,101246.83
2018-12-05T13:09:21.871Z,101238.80
2018-12-05T13:14:26.166Z,101231.83
2018-12-05T13:19:30.377Z,101226.75
2018-12-05T13:24:34.597Z,101223.58
2018-12-05T13:29:40.268Z,101219.18
2018-12-05T13:34:45.201Z,101202.34
2018-12-05T13:39:49.882Z,101205.39
2018-12-05T13:44:54.320Z,101206.87
2018-12-05T13:49:59.652Z,101203.03
2018-12-05T13:55:04.232Z,101199.01
2018-12-05T14:00:09.147Z,101189.48
2018-12-05T14:05:13.571Z,101199.84
2018-12-05T14:10:17.846Z,101186.47
2018-12-05T14:15:28.270Z,101190.95
2018-12-05T14:20:32.563Z,101179.13
2018-12-05T14:25:36.970Z,101175.57
2018-12-05T14:30:41.227Z,101176.36
2018-12-05T14:35:45.496Z,101171.66
2018-12-05T14:40:49.791Z,101153.64
2018-12-05T14:45:53.993Z,101155.48
2018-12-05T14:50:58.379Z,101151.75
2018-12-05T14:56:02.609Z,101138.67
2018-12-05T15:01:06.717Z,101135.75
2018-12-05T15:06:11.684Z,101136.54
2018-12-05T15:11:16.317Z,101132.62
2018-12-05T15:16:20.785Z,101123.83
2018-12-05T15:21:25.389Z,101116.97
2018-12-05T15:26:29.857Z,101124.67
2018-12-05T15:31:34.369Z,101115.74
2018-12-05T15:36:39.017Z,101117.42
2018-12-05T15:41:43.629Z,101106.38
2018-12-05T15:46:47.837Z,101107.33
2018-12-05T15:51:52.265Z,101094.25
2018-12-05T15:56:56.441Z,101092.80
2018-12-05T16:02:00.973Z,101096.22
2018-12-05T16:07:05.381Z,101086.58
2018-12-05T16:12:09.821Z,101085.88
2018-12-05T16:17:14.415Z,101072.19
2018-12-05T16:22:19.108Z,101072.13
2018-12-05T16:27:23.493Z,101070.73
2018-12-05T16:32:27.773Z,101070.27
2018-12-05T16:37:32.253Z,101059.66
2018-12-05T16:42:37.879Z,101059.96
2018-12-05T16:47:42.296Z,101055.13
2018-12-05T16:52:46.627Z,101050.72
2018-12-05T16:57:50.862Z,101042.41
2018-12-05T17:02:55.885Z,101042.02
2018-12-05T17:08:00.259Z,101044.48
2018-12-05T17:13:05.471Z,101037.06
2018-12-05T17:18:09.902Z,101025.45
2018-12-05T17:23:14.179Z,101016.60
2018-12-05T17:28:18.534Z,101010.99
2018-12-05T17:33:22.804Z,101003.91
2018-12-05T17:38:27.102Z,100994.08
2018-12-05T17:43:31.424Z,100996.86
2018-12-05T17:48:35.684Z,100994.42
2018-12-05T17:53:40.044Z,100989.55
2018-12-05T17:58:44.322Z,100988.31
2018-12-05T18:03:48.565Z,100970.14
2018-12-05T18:08:52.859Z,100970.44
2018-12-05T18:13:57.088Z,100964.58
2018-12-05T18:19:01.455Z,100967.51
2018-12-05T18:24:05.672Z,100947.95
2018-12-05T18:29:09.984Z,100940.62
2018-12-05T18:34:14.234Z,100931.34
2018-12-05T18:39:18.451Z,100932.66
2018-12-05T18:44:22.620Z,100922.44
2018-12-05T18:49:27.342Z,100914.48
2018-12-05T18:54:32.385Z,100915.80
2018-12-05T19:04:52.885Z,100915.15
2018-12-05T19:09:58.116Z,100909.89
2018-12-05T19:15:02.420Z,100906.53
2018-12-05T19:20:13.002Z,100890.75
2018-12-05T19:25:18.657Z,100874.69
2018-12-05T19:30:37.653Z,100855.50
2018-12-05T19:35:47.110Z,100854.55
2018-12-05T19:40:51.327Z,100852.48
2018-12-05T19:45:55.694Z,100840.94
2018-12-05T19:51:01.603Z,100842.98
2018-12-05T19:56:05.817Z,100839.49
2018-12-05T20:01:10.127Z,100827.66
2018-12-05T20:06:14.489Z,100826.71
2018-12-05T20:11:18.709Z,100805.97
2018-12-05T20:16:23.121Z,100800.02
2018-12-05T20:21:27.603Z,100812.16
2018-12-05T20:26:32.135Z,100800.78
2018-12-05T20:31:37.601Z,100801.80
2018-12-05T20:36:41.963Z,100792.01
2018-12-05T20:41:46.506Z,100789.51
2018-12-05T20:46:51.677Z,100780.30
2018-12-05T20:51:57.006Z,100766.86
2018-12-05T20:57:01.361Z,100755.33
2018-12-05T21:02:05.945Z,100748.26
2018-12-05T21:07:10.386Z,100739.55
2018-12-05T21:12:14.896Z,100744.50
2018-12-05T21:17:19.641Z,100732.27
2018-12-05T21:22:24.066Z,100725.04
2018-12-05T21:27:28.446Z,100712.13
2018-12-05T21:32:33.009Z,100702.25
2018-12-05T21:37:37.446Z,100702.37
2018-12-05T21:42:41.873Z,100691.50
2018-12-05T21:47:46.323Z,100678.35
2018-12-05T21:52:51.051Z,100676.34
2018-12-05T21:57:55.235Z,100665.81
2018-12-05T22:02:59.436Z,100661.67
2018-12-05T22:08:03.561Z,100657.98
2018-12-05T22:13:07.768Z,100653.31
2018-12-05T22:18:11.931Z,100647.20
2018-12-05T22:23:16.047Z,100646.91
2018-12-05T22:28:20.133Z,100644.88
2018-12-05T22:33:24.393Z,100630.59
2018-12-05T22:38:28.557Z,100622.63
2018-12-05T22:43:32.718Z,100615.03
2018-12-05T22:48:36.769Z,100615.09
2018-12-05T22:53:41.021Z,100603.56
2018-12-05T22:58:45.177Z,100596.52
2018-12-05T23:03:49.405Z,100587.41
2018-12-05T23:08:53.521Z,100575.14
2018-12-05T23:13:57.713Z,100572.22
2018-12-05T23:19:01.894Z,100559.80
2018-12-05T23:24:06.144Z,100557.45
2018-12-05T23:29:10.425Z,100556.24
2018-12-05T23:34:14.752Z,100555.41
2018-12-05T23:39:18.939Z,100554.30
2018-12-05T23:44:23.139Z,100559.80
2018-12-05T23:49:27.289Z,100557.75
2018-12-05T23:54:31.581Z,100565.64
2018-12-05T23:59:35.829Z,100563.01
